Fernwood, Idaho
Current Conditions -  °F | °C
As of 2:53 AM on Saturday 25 Oct 2014 (Local Time) from KMLP Reporting Station
Moderate Fog Moderate Fog  
Wind Chill: 28°   Ceiling: 100
Heat Index: 36°   Visibility: 0.25mi
Dew Point: 36°   Wind: 10mph
Humidity: 100%   Direction: 160°SSE
Pressure: 29.94"   Gusts: 17mph
Location:  47.11°N, 116.4°W
Report Text: KMLP 250953Z AUTO 16009G15KT 1/4SM FG VV001 02/02 A2994 RMK AO2 SLP099 T00220022
Loading
Personal Weather Stations






























Interactive Weather Map
Tropical Storm Tracking
New forecast layout! Learn more

10-Day Weather Forecast

Advertisements
Track Severe Weather on mobile